Terminal Aerodrome Forecast
Issued by NWS

Home | Current Version | Previous Version | Text Only | Print | Product List | Glossary On
Versions: 1 2 3 4 5 6 7 8 9 10 11 12 13 14 15 16 17 18 19 20 21 22 23 24
000
FTAK31 PAFA 191733
TAFAGA
TAF
PAGA 191733Z 1918/2018 24005KT P6SM VCSH BKN045
     FM192200 17010KT P6SM -RA OVC025
     FM200200 15008KT 3SM -RA BR SCT007 BKN020 OVC035
     FM201600 10004KT 5SM -RA BR SCT007 OVC015=

USA.gov is the U.S. government's official web portal to all federal, state and local government web resources and services.